Nearby METAR Reports

 

KFIN - Palm Coast, Florida, USA
Distance from station: ENE 9mi, 15km
Updated: Thu, 21-Jan-2021 10:15pm EST
Partly cloudy
Partly cloudy
 Wind from WSW
Wind: WSW 7 mph , 11 km/h
Temperature: 63°F , 17°C
Dew Point: 54°F , 12°C
Humidity: 73%
Barometer: 30.02 inHg , 1016.6 hPa
Clouds: Partly cloudy
Visibility: 10 miles , 16 km
Cloud details: Partly cloudy 5500 ft
2021/01/22 03:15 KFIN 220315Z AUTO 25006KT 10SM SCT055 17/12 A3002 RMK AO2 T01660122
KOMN - Ormond Beach Vor, Florida, USA
Distance from station: ESE 17mi, 27km
Updated: Thu, 21-Jan-2021 6:50pm EST
NOT Current
Clear
Clear
 Wind from WSW
Wind: WSW 12 mph , 19 km/h
Temperature: 68°F , 20°C
Dew Point: 46°F , 8°C
Humidity: 46%
Barometer: 30.02 inHg , 1016.6 hPa
Clouds: Clear
Visibility: 10 miles , 16 km
2021/01/21 23:50 KOMN 212350Z 24010KT 10SM CLR 20/08 A3002
 
KDAB - Daytona Beach, Florida, USA
Distance from station: SE 24mi, 39km
Updated: Thu, 21-Jan-2021 9:53pm EST
Overcast
Overcast
 Wind from SW
Wind: SW 12 mph , 19 km/h
Temperature: 63°F , 17°C
Dew Point: 48°F , 9°C
Humidity: 59%
Barometer: 30.02 inHg , 1016.6 hPa
Clouds: Overcast
Visibility: 10 miles , 16 km
Cloud details: Few Clouds 6500 ft
Overcast 7500 ft
2021/01/22 02:53 KDAB 220253Z 23010KT 10SM FEW065 OVC075 17/09 A3002 RMK AO2 SLP164 T01720089 58000
KDED - Deland, Florida, USA
Distance from station: S 26mi, 41km
Updated: Thu, 21-Jan-2021 10:15pm EST
Mostly cloudy
Mostly cloudy
 Wind from WSW
Wind: WSW 7 mph , 11 km/h
Temperature: 63°F , 17°C
Dew Point: 52°F , 11°C
Humidity: 68%
Barometer: 30.04 inHg , 1017.3 hPa
Clouds: Mostly cloudy
Visibility: 10 miles , 16 km
Cloud details: Mostly cloudy 7500 ft
2021/01/22 03:15 KDED 220315Z AUTO 25006KT 10SM BKN075 17/11 A3004 RMK AO2 T01660112
 
KEVB - New Smyrna Beach, Florida, USA
Distance from station: SE 36mi, 58km
Updated: Thu, 21-Jan-2021 9:47pm EST
Clear
Clear
 Wind from WSW
Wind: WSW 9 mph , 15 km/h
Temperature: 64°F , 18°C
Dew Point: 50°F , 10°C
Humidity: 60%
Barometer: 30.02 inHg , 1016.6 hPa
Clouds: Clear
Visibility: 10 miles , 16 km
2021/01/22 02:47 KEVB 220247Z 25008KT 10SM CLR 18/10 A3002 RMK LAST
KSGJ - St Augustine, Florida, USA
Distance from station: N 37mi, 60km
Updated: Thu, 21-Jan-2021 9:56pm EST
Few Clouds
Few Clouds
 Wind from SW
Wind: SW 9 mph , 15 km/h
Temperature: 64°F , 18°C
Dew Point: 54°F , 12°C
Humidity: 68%
Barometer: 30.02 inHg , 1016.6 hPa
Clouds: Few Clouds
Visibility: 10 miles , 16 km
Cloud details: Few Clouds 4300 ft
2021/01/22 02:56 KSGJ 220256Z AUTO 23008KT 10SM FEW043 18/12 A3002 RMK AO2 SLP163 T01830117 51004 $
 
KSFB - Sanford/Orlando, Florida, USA
Distance from station: S 47mi, 75km
Updated: Thu, 21-Jan-2021 9:53pm EST
Few Clouds
Few Clouds
 Wind from WSW
Wind: WSW 7 mph , 11 km/h
Temperature: 63°F , 17°C
Dew Point: 48°F , 9°C
Humidity: 59%
Barometer: 30.04 inHg , 1017.3 hPa
Clouds: Few Clouds
Visibility: 10 miles , 16 km
Cloud details: Few Clouds 7000 ft
2021/01/22 02:53 KSFB 220253Z 25006KT 10SM FEW070 17/09 A3004 RMK AO2 SLP173 T01720089 50005
KVVG - The Villages, Florida, USA
Distance from station: SW 50mi, 80km
Updated: Wed, 14-Feb-2018 2:10pm EST
NOT Current

 Wind from calm
Wind: Calm
Temperature: 73°F , 23°C
Dew Point: 66°F , 19°C
Humidity: 78%
Barometer: 30.29 inHg , 1025.7 hPa
Visibility: 10 miles , 16 km
2018/02/14 19:10 KVVG 141910Z AUTO 00000KT 10SM 23/19 A3029 RMK A01